sensor_id;sensor_type;location;lat;lon;timestamp;temperature;humidity
21540;DHT22;10931;52.164;5.518;2023-06-04T00:00:27;25.10;52.10
21540;DHT22;10931;52.164;5.518;2023-06-04T00:02:55;25.10;52.10
21540;DHT22;10931;52.164;5.518;2023-06-04T00:05:23;25.10;52.10
21540;DHT22;10931;52.164;5.518;2023-06-04T00:07:51;25.10;52.10
21540;DHT22;10931;52.164;5.518;2023-06-04T00:10:17;25.10;52.10
21540;DHT22;10931;52.164;5.518;2023-06-04T00:12:46;25.10;52.10
21540;DHT22;10931;52.164;5.518;2023-06-04T00:15:13;25.10;52.10
21540;DHT22;10931;52.164;5.518;2023-06-04T00:17:41;25.10;52.10
21540;DHT22;10931;52.164;5.518;2023-06-04T00:20:10;25.10;52.20
21540;DHT22;10931;52.164;5.518;2023-06-04T00:22:36;25.10;52.20
21540;DHT22;10931;52.164;5.518;2023-06-04T00:25:02;25.00;52.20
21540;DHT22;10931;52.164;5.518;2023-06-04T00:27:28;25.00;52.50
21540;DHT22;10931;52.164;5.518;2023-06-04T00:29:56;25.00;52.20
21540;DHT22;10931;52.164;5.518;2023-06-04T00:32:25;25.10;52.20
21540;DHT22;10931;52.164;5.518;2023-06-04T00:34:57;25.00;52.20
21540;DHT22;10931;52.164;5.518;2023-06-04T00:37:28;25.00;52.20
21540;DHT22;10931;52.164;5.518;2023-06-04T00:39:54;25.00;52.30
21540;DHT22;10931;52.164;5.518;2023-06-04T00:42:20;25.00;52.30
21540;DHT22;10931;52.164;5.518;2023-06-04T00:44:46;25.00;52.30
21540;DHT22;10931;52.164;5.518;2023-06-04T00:47:14;24.90;52.20
21540;DHT22;10931;52.164;5.518;2023-06-04T00:49:40;24.90;52.30
21540;DHT22;10931;52.164;5.518;2023-06-04T00:52:10;24.90;52.30
21540;DHT22;10931;52.164;5.518;2023-06-04T00:54:39;24.90;52.30
21540;DHT22;10931;52.164;5.518;2023-06-04T00:57:05;24.90;52.30
21540;DHT22;10931;52.164;5.518;2023-06-04T00:59:33;24.90;52.30
21540;DHT22;10931;52.164;5.518;2023-06-04T01:02:03;24.90;52.30
21540;DHT22;10931;52.164;5.518;2023-06-04T01:07:16;24.90;52.30
21540;DHT22;10931;52.164;5.518;2023-06-04T01:09:44;24.90;52.30
21540;DHT22;10931;52.164;5.518;2023-06-04T01:12:14;24.80;52.30
21540;DHT22;10931;52.164;5.518;2023-06-04T01:17:35;24.80;52.30
21540;DHT22;10931;52.164;5.518;2023-06-04T01:20:19;24.80;52.30
21540;DHT22;10931;52.164;5.518;2023-06-04T01:25:24;24.80;52.40
21540;DHT22;10931;52.164;5.518;2023-06-04T01:27:55;24.80;52.40
21540;DHT22;10931;52.164;5.518;2023-06-04T01:30:32;24.80;52.40
21540;DHT22;10931;52.164;5.518;2023-06-04T01:32:59;24.80;52.40
21540;DHT22;10931;52.164;5.518;2023-06-04T01:35:26;24.80;52.40
21540;DHT22;10931;52.164;5.518;2023-06-04T01:37:53;24.80;52.40
21540;DHT22;10931;52.164;5.518;2023-06-04T01:40:20;24.80;52.40
21540;DHT22;10931;52.164;5.518;2023-06-04T01:42:46;24.70;52.40
21540;DHT22;10931;52.164;5.518;2023-06-04T01:45:11;24.70;52.40
21540;DHT22;10931;52.164;5.518;2023-06-04T01:47:37;24.70;52.40
21540;DHT22;10931;52.164;5.518;2023-06-04T01:50:05;24.70;52.40
21540;DHT22;10931;52.164;5.518;2023-06-04T01:52:40;24.70;52.40
21540;DHT22;10931;52.164;5.518;2023-06-04T01:55:07;24.70;52.50
21540;DHT22;10931;52.164;5.518;2023-06-04T01:57:34;24.70;52.50
21540;DHT22;10931;52.164;5.518;2023-06-04T02:00:05;24.60;52.40
21540;DHT22;10931;52.164;5.518;2023-06-04T02:02:35;24.60;52.40
21540;DHT22;10931;52.164;5.518;2023-06-04T02:05:04;24.60;52.50
21540;DHT22;10931;52.164;5.518;2023-06-04T02:07:40;24.60;52.50
21540;DHT22;10931;52.164;5.518;2023-06-04T02:10:12;24.60;52.50
21540;DHT22;10931;52.164;5.518;2023-06-04T02:12:56;24.60;52.50
21540;DHT22;10931;52.164;5.518;2023-06-04T02:15:22;24.60;52.50
21540;DHT22;10931;52.164;5.518;2023-06-04T02:17:48;24.60;52.50
21540;DHT22;10931;52.164;5.518;2023-06-04T02:20:16;24.60;52.50
21540;DHT22;10931;52.164;5.518;2023-06-04T02:22:42;24.60;52.50
21540;DHT22;10931;52.164;5.518;2023-06-04T02:25:08;24.60;52.50
21540;DHT22;10931;52.164;5.518;2023-06-04T02:27:35;24.50;52.50
21540;DHT22;10931;52.164;5.518;2023-06-04T02:30:01;24.60;52.50
21540;DHT22;10931;52.164;5.518;2023-06-04T02:32:27;24.50;52.50
21540;DHT22;10931;52.164;5.518;2023-06-04T02:34:54;24.50;52.50
21540;DHT22;10931;52.164;5.518;2023-06-04T02:37:21;24.50;52.50
21540;DHT22;10931;52.164;5.518;2023-06-04T02:39:46;24.50;52.50
21540;DHT22;10931;52.164;5.518;2023-06-04T02:42:12;24.50;52.50
21540;DHT22;10931;52.164;5.518;2023-06-04T02:44:38;24.50;52.50
21540;DHT22;10931;52.164;5.518;2023-06-04T02:47:04;24.50;52.50
21540;DHT22;10931;52.164;5.518;2023-06-04T02:49:32;24.40;52.50
21540;DHT22;10931;52.164;5.518;2023-06-04T02:51:58;24.40;52.50
21540;DHT22;10931;52.164;5.518;2023-06-04T02:54:24;24.40;52.50
21540;DHT22;10931;52.164;5.518;2023-06-04T02:56:49;24.40;52.50
21540;DHT22;10931;52.164;5.518;2023-06-04T02:59:17;24.40;52.50
21540;DHT22;10931;52.164;5.518;2023-06-04T03:01:43;24.40;52.50
21540;DHT22;10931;52.164;5.518;2023-06-04T03:04:09;24.30;52.50
21540;DHT22;10931;52.164;5.518;2023-06-04T03:06:36;24.30;52.50
21540;DHT22;10931;52.164;5.518;2023-06-04T03:09:04;24.30;52.50
21540;DHT22;10931;52.164;5.518;2023-06-04T03:11:30;24.40;52.50
21540;DHT22;10931;52.164;5.518;2023-06-04T03:13:56;24.30;52.50
21540;DHT22;10931;52.164;5.518;2023-06-04T03:16:29;24.30;52.50
21540;DHT22;10931;52.164;5.518;2023-06-04T03:18:54;24.30;52.50
21540;DHT22;10931;52.164;5.518;2023-06-04T03:21:21;24.30;52.50
21540;DHT22;10931;52.164;5.518;2023-06-04T03:23:47;24.30;52.60
21540;DHT22;10931;52.164;5.518;2023-06-04T03:26:13;24.30;52.50
21540;DHT22;10931;52.164;5.518;2023-06-04T03:28:39;24.20;52.50
21540;DHT22;10931;52.164;5.518;2023-06-04T03:31:05;24.30;52.60
21540;DHT22;10931;52.164;5.518;2023-06-04T03:33:31;24.30;52.60
21540;DHT22;10931;52.164;5.518;2023-06-04T03:35:57;24.20;52.50
21540;DHT22;10931;52.164;5.518;2023-06-04T03:38:25;24.20;52.60
21540;DHT22;10931;52.164;5.518;2023-06-04T03:40:50;24.20;52.50
21540;DHT22;10931;52.164;5.518;2023-06-04T03:43:21;24.20;52.60
21540;DHT22;10931;52.164;5.518;2023-06-04T03:45:50;24.20;52.60
21540;DHT22;10931;52.164;5.518;2023-06-04T03:48:15;24.20;52.60
21540;DHT22;10931;52.164;5.518;2023-06-04T03:50:42;24.20;52.60
21540;DHT22;10931;52.164;5.518;2023-06-04T03:53:08;24.20;52.60
21540;DHT22;10931;52.164;5.518;2023-06-04T03:55:33;24.20;52.60
21540;DHT22;10931;52.164;5.518;2023-06-04T03:57:59;24.10;52.60
21540;DHT22;10931;52.164;5.518;2023-06-04T04:00:26;24.10;52.60
21540;DHT22;10931;52.164;5.518;2023-06-04T04:02:51;24.10;52.60
21540;DHT22;10931;52.164;5.518;2023-06-04T04:05:17;24.10;52.60
21540;DHT22;10931;52.164;5.518;2023-06-04T04:07:43;24.10;52.60
21540;DHT22;10931;52.164;5.518;2023-06-04T04:10:08;24.10;52.60
21540;DHT22;10931;52.164;5.518;2023-06-04T04:12:37;24.00;52.50
21540;DHT22;10931;52.164;5.518;2023-06-04T04:15:03;24.10;52.60
21540;DHT22;10931;52.164;5.518;2023-06-04T04:17:30;24.10;52.60
21540;DHT22;10931;52.164;5.518;2023-06-04T04:19:55;24.00;52.60
21540;DHT22;10931;52.164;5.518;2023-06-04T04:22:21;24.00;52.60
21540;DHT22;10931;52.164;5.518;2023-06-04T04:24:47;24.00;52.60
21540;DHT22;10931;52.164;5.518;2023-06-04T04:27:12;24.00;52.60
21540;DHT22;10931;52.164;5.518;2023-06-04T04:29:38;24.00;52.60
21540;DHT22;10931;52.164;5.518;2023-06-04T04:32:04;24.00;52.60
21540;DHT22;10931;52.164;5.518;2023-06-04T04:34:36;24.00;52.60
21540;DHT22;10931;52.164;5.518;2023-06-04T04:37:10;24.00;52.60
21540;DHT22;10931;52.164;5.518;2023-06-04T04:39:36;23.90;52.60
21540;DHT22;10931;52.164;5.518;2023-06-04T04:42:02;24.00;52.60
21540;DHT22;10931;52.164;5.518;2023-06-04T04:44:28;24.00;52.70
21540;DHT22;10931;52.164;5.518;2023-06-04T04:46:54;24.00;52.60
21540;DHT22;10931;52.164;5.518;2023-06-04T04:49:20;23.90;52.60
21540;DHT22;10931;52.164;5.518;2023-06-04T04:51:46;23.90;52.60
21540;DHT22;10931;52.164;5.518;2023-06-04T04:54:12;23.90;52.60
21540;DHT22;10931;52.164;5.518;2023-06-04T04:56:39;23.90;52.60
21540;DHT22;10931;52.164;5.518;2023-06-04T04:59:05;23.90;52.60
21540;DHT22;10931;52.164;5.518;2023-06-04T05:01:31;23.90;52.60
21540;DHT22;10931;52.164;5.518;2023-06-04T05:03:56;23.90;52.60
21540;DHT22;10931;52.164;5.518;2023-06-04T05:06:22;23.90;52.60
21540;DHT22;10931;52.164;5.518;2023-06-04T05:08:50;23.80;52.60
21540;DHT22;10931;52.164;5.518;2023-06-04T05:11:16;23.90;52.60
21540;DHT22;10931;52.164;5.518;2023-06-04T05:13:41;23.80;52.60
21540;DHT22;10931;52.164;5.518;2023-06-04T05:16:07;23.80;52.60
21540;DHT22;10931;52.164;5.518;2023-06-04T05:18:33;23.80;52.60
21540;DHT22;10931;52.164;5.518;2023-06-04T05:21:00;23.80;52.60
21540;DHT22;10931;52.164;5.518;2023-06-04T05:23:29;23.80;52.60
21540;DHT22;10931;52.164;5.518;2023-06-04T05:25:55;23.80;52.60
21540;DHT22;10931;52.164;5.518;2023-06-04T05:28:21;23.80;52.70
21540;DHT22;10931;52.164;5.518;2023-06-04T05:30:51;23.80;52.70
21540;DHT22;10931;52.164;5.518;2023-06-04T05:33:17;23.80;52.70
21540;DHT22;10931;52.164;5.518;2023-06-04T05:35:49;23.80;52.60
21540;DHT22;10931;52.164;5.518;2023-06-04T05:38:17;23.70;52.60
21540;DHT22;10931;52.164;5.518;2023-06-04T05:40:48;23.80;52.70
21540;DHT22;10931;52.164;5.518;2023-06-04T05:43:14;23.70;52.70
21540;DHT22;10931;52.164;5.518;2023-06-04T05:45:40;23.80;52.70
21540;DHT22;10931;52.164;5.518;2023-06-04T05:48:05;23.70;52.60
21540;DHT22;10931;52.164;5.518;2023-06-04T05:50:31;23.70;52.60
21540;DHT22;10931;52.164;5.518;2023-06-04T05:52:57;23.70;52.70
21540;DHT22;10931;52.164;5.518;2023-06-04T05:55:23;23.70;52.70
21540;DHT22;10931;52.164;5.518;2023-06-04T05:57:49;23.70;52.70
21540;DHT22;10931;52.164;5.518;2023-06-04T06:00:17;23.70;52.60
21540;DHT22;10931;52.164;5.518;2023-06-04T06:02:43;23.70;52.70
21540;DHT22;10931;52.164;5.518;2023-06-04T06:05:10;23.70;52.70
21540;DHT22;10931;52.164;5.518;2023-06-04T06:07:39;23.70;52.70
21540;DHT22;10931;52.164;5.518;2023-06-04T06:10:05;23.70;52.70
21540;DHT22;10931;52.164;5.518;2023-06-04T06:12:31;23.70;52.70
21540;DHT22;10931;52.164;5.518;2023-06-04T06:14:56;23.70;52.70
21540;DHT22;10931;52.164;5.518;2023-06-04T06:17:22;23.60;52.60
21540;DHT22;10931;52.164;5.518;2023-06-04T06:19:50;23.70;52.70
21540;DHT22;10931;52.164;5.518;2023-06-04T06:22:17;23.60;52.60
21540;DHT22;10931;52.164;5.518;2023-06-04T06:24:42;23.60;52.60
21540;DHT22;10931;52.164;5.518;2023-06-04T06:27:08;23.60;52.60
21540;DHT22;10931;52.164;5.518;2023-06-04T06:29:34;23.60;52.70
21540;DHT22;10931;52.164;5.518;2023-06-04T06:32:03;23.60;52.60
21540;DHT22;10931;52.164;5.518;2023-06-04T06:34:29;23.60;52.60
21540;DHT22;10931;52.164;5.518;2023-06-04T06:36:56;23.60;52.70
21540;DHT22;10931;52.164;5.518;2023-06-04T06:39:22;23.60;52.70
21540;DHT22;10931;52.164;5.518;2023-06-04T06:41:51;23.60;52.60
21540;DHT22;10931;52.164;5.518;2023-06-04T06:44:17;23.60;52.60
21540;DHT22;10931;52.164;5.518;2023-06-04T06:46:42;23.60;52.70
21540;DHT22;10931;52.164;5.518;2023-06-04T06:49:08;23.60;52.70
21540;DHT22;10931;52.164;5.518;2023-06-04T06:51:34;23.60;52.70
21540;DHT22;10931;52.164;5.518;2023-06-04T06:53:59;23.60;52.70
21540;DHT22;10931;52.164;5.518;2023-06-04T06:56:37;23.60;52.60
21540;DHT22;10931;52.164;5.518;2023-06-04T06:59:03;23.60;52.60
21540;DHT22;10931;52.164;5.518;2023-06-04T07:01:28;23.60;52.70
21540;DHT22;10931;52.164;5.518;2023-06-04T07:03:56;23.60;52.60
21540;DHT22;10931;52.164;5.518;2023-06-04T07:06:22;23.60;52.70
21540;DHT22;10931;52.164;5.518;2023-06-04T07:08:47;23.60;52.70
21540;DHT22;10931;52.164;5.518;2023-06-04T07:11:13;23.60;52.70
21540;DHT22;10931;52.164;5.518;2023-06-04T07:13:39;23.60;52.70
21540;DHT22;10931;52.164;5.518;2023-06-04T07:16:05;23.60;52.70
21540;DHT22;10931;52.164;5.518;2023-06-04T07:18:31;23.50;52.60
21540;DHT22;10931;52.164;5.518;2023-06-04T07:20:57;23.60;52.70
21540;DHT22;10931;52.164;5.518;2023-06-04T07:23:23;23.60;52.70
21540;DHT22;10931;52.164;5.518;2023-06-04T07:25:49;23.60;52.70
21540;DHT22;10931;52.164;5.518;2023-06-04T07:28:15;23.60;52.70
21540;DHT22;10931;52.164;5.518;2023-06-04T07:30:41;23.60;52.70
21540;DHT22;10931;52.164;5.518;2023-06-04T07:33:07;23.60;52.70
21540;DHT22;10931;52.164;5.518;2023-06-04T07:35:32;23.60;52.70
21540;DHT22;10931;52.164;5.518;2023-06-04T07:38:01;23.60;52.70
21540;DHT22;10931;52.164;5.518;2023-06-04T07:40:26;23.60;52.70
21540;DHT22;10931;52.164;5.518;2023-06-04T07:42:55;23.60;52.70
21540;DHT22;10931;52.164;5.518;2023-06-04T07:45:21;23.60;52.70
21540;DHT22;10931;52.164;5.518;2023-06-04T07:47:46;23.60;52.70
21540;DHT22;10931;52.164;5.518;2023-06-04T07:50:12;23.50;52.60
21540;DHT22;10931;52.164;5.518;2023-06-04T07:52:38;23.60;52.70
21540;DHT22;10931;52.164;5.518;2023-06-04T07:55:04;23.60;52.70
21540;DHT22;10931;52.164;5.518;2023-06-04T07:57:38;23.60;52.70
21540;DHT22;10931;52.164;5.518;2023-06-04T08:00:09;23.60;52.70
21540;DHT22;10931;52.164;5.518;2023-06-04T08:02:37;23.50;52.60
21540;DHT22;10931;52.164;5.518;2023-06-04T08:05:02;23.60;52.70
21540;DHT22;10931;52.164;5.518;2023-06-04T08:07:29;23.60;52.60
21540;DHT22;10931;52.164;5.518;2023-06-04T08:09:55;23.50;52.60
21540;DHT22;10931;52.164;5.518;2023-06-04T08:12:27;23.60;52.70
21540;DHT22;10931;52.164;5.518;2023-06-04T08:14:52;23.60;52.60
21540;DHT22;10931;52.164;5.518;2023-06-04T08:17:22;23.60;52.60
21540;DHT22;10931;52.164;5.518;2023-06-04T08:19:47;23.60;52.60
21540;DHT22;10931;52.164;5.518;2023-06-04T08:22:13;23.60;52.70
21540;DHT22;10931;52.164;5.518;2023-06-04T08:24:39;23.60;52.60
21540;DHT22;10931;52.164;5.518;2023-06-04T08:27:05;23.60;52.60
21540;DHT22;10931;52.164;5.518;2023-06-04T08:29:34;23.60;52.70
21540;DHT22;10931;52.164;5.518;2023-06-04T08:32:01;23.60;52.60
21540;DHT22;10931;52.164;5.518;2023-06-04T08:34:27;23.60;52.60
21540;DHT22;10931;52.164;5.518;2023-06-04T08:36:53;23.60;52.60
21540;DHT22;10931;52.164;5.518;2023-06-04T08:39:19;23.60;52.60
21540;DHT22;10931;52.164;5.518;2023-06-04T08:41:48;23.60;52.60
21540;DHT22;10931;52.164;5.518;2023-06-04T08:44:16;23.60;52.60
21540;DHT22;10931;52.164;5.518;2023-06-04T08:46:44;23.60;52.60
21540;DHT22;10931;52.164;5.518;2023-06-04T08:49:12;23.60;52.60
21540;DHT22;10931;52.164;5.518;2023-06-04T08:51:38;23.60;52.60
21540;DHT22;10931;52.164;5.518;2023-06-04T08:54:08;23.60;52.60
21540;DHT22;10931;52.164;5.518;2023-06-04T08:56:35;23.60;52.60
21540;DHT22;10931;52.164;5.518;2023-06-04T08:59:03;23.60;52.60
21540;DHT22;10931;52.164;5.518;2023-06-04T09:01:32;23.60;52.60
21540;DHT22;10931;52.164;5.518;2023-06-04T09:04:01;23.60;52.60
21540;DHT22;10931;52.164;5.518;2023-06-04T09:06:26;23.60;52.60
21540;DHT22;10931;52.164;5.518;2023-06-04T09:08:56;23.60;52.60
21540;DHT22;10931;52.164;5.518;2023-06-04T09:11:41;23.60;52.50
21540;DHT22;10931;52.164;5.518;2023-06-04T09:14:11;23.60;52.60
21540;DHT22;10931;52.164;5.518;2023-06-04T09:16:52;23.60;52.60
21540;DHT22;10931;52.164;5.518;2023-06-04T09:19:18;23.60;52.60
21540;DHT22;10931;52.164;5.518;2023-06-04T09:21:51;23.60;52.60
21540;DHT22;10931;52.164;5.518;2023-06-04T09:24:21;23.70;52.60
21540;DHT22;10931;52.164;5.518;2023-06-04T09:26:50;23.60;52.60
21540;DHT22;10931;52.164;5.518;2023-06-04T09:29:20;23.60;52.60
21540;DHT22;10931;52.164;5.518;2023-06-04T09:31:58;23.60;52.60
21540;DHT22;10931;52.164;5.518;2023-06-04T09:34:28;23.70;52.60
21540;DHT22;10931;52.164;5.518;2023-06-04T09:36:57;23.70;52.60
21540;DHT22;10931;52.164;5.518;2023-06-04T09:39:24;23.70;52.60
21540;DHT22;10931;52.164;5.518;2023-06-04T09:42:02;23.70;52.60
21540;DHT22;10931;52.164;5.518;2023-06-04T09:44:43;23.70;52.60
21540;DHT22;10931;52.164;5.518;2023-06-04T09:47:11;23.70;52.60
21540;DHT22;10931;52.164;5.518;2023-06-04T09:49:44;23.70;52.60
21540;DHT22;10931;52.164;5.518;2023-06-04T09:52:13;23.80;52.60
21540;DHT22;10931;52.164;5.518;2023-06-04T10:02:28;23.80;52.60
21540;DHT22;10931;52.164;5.518;2023-06-04T10:04:56;23.80;52.60
21540;DHT22;10931;52.164;5.518;2023-06-04T10:07:27;23.80;52.60
21540;DHT22;10931;52.164;5.518;2023-06-04T10:09:53;23.80;52.60
21540;DHT22;10931;52.164;5.518;2023-06-04T10:12:30;23.80;52.60
21540;DHT22;10931;52.164;5.518;2023-06-04T10:15:04;23.90;52.60
21540;DHT22;10931;52.164;5.518;2023-06-04T10:17:41;23.90;52.60
21540;DHT22;10931;52.164;5.518;2023-06-04T10:20:07;23.90;52.50
21540;DHT22;10931;52.164;5.518;2023-06-04T10:22:35;24.00;52.60
21540;DHT22;10931;52.164;5.518;2023-06-04T10:25:04;23.90;52.50
21540;DHT22;10931;52.164;5.518;2023-06-04T10:27:33;23.90;52.50
21540;DHT22;10931;52.164;5.518;2023-06-04T10:30:05;24.00;52.50
21540;DHT22;10931;52.164;5.518;2023-06-04T10:32:31;24.00;52.50
21540;DHT22;10931;52.164;5.518;2023-06-04T10:35:04;24.00;52.50
21540;DHT22;10931;52.164;5.518;2023-06-04T10:37:35;24.10;52.50
21540;DHT22;10931;52.164;5.518;2023-06-04T10:40:01;24.00;52.50
21540;DHT22;10931;52.164;5.518;2023-06-04T10:42:41;24.10;52.50
21540;DHT22;10931;52.164;5.518;2023-06-04T10:45:08;24.10;52.50
21540;DHT22;10931;52.164;5.518;2023-06-04T10:47:34;24.10;52.40
21540;DHT22;10931;52.164;5.518;2023-06-04T10:50:13;24.20;52.50
21540;DHT22;10931;52.164;5.518;2023-06-04T10:52:54;24.20;52.50
21540;DHT22;10931;52.164;5.518;2023-06-04T10:55:20;24.20;52.50
21540;DHT22;10931;52.164;5.518;2023-06-04T10:57:58;24.20;52.40
21540;DHT22;10931;52.164;5.518;2023-06-04T11:00:46;24.20;52.40
21540;DHT22;10931;52.164;5.518;2023-06-04T11:03:14;24.20;52.40
21540;DHT22;10931;52.164;5.518;2023-06-04T11:05:42;24.30;52.40
21540;DHT22;10931;52.164;5.518;2023-06-04T11:08:08;24.30;52.40
21540;DHT22;10931;52.164;5.518;2023-06-04T11:10:37;24.30;52.40
21540;DHT22;10931;52.164;5.518;2023-06-04T11:13:04;24.30;52.40
21540;DHT22;10931;52.164;5.518;2023-06-04T11:15:44;24.30;52.30
21540;DHT22;10931;52.164;5.518;2023-06-04T11:18:15;24.40;52.40
21540;DHT22;10931;52.164;5.518;2023-06-04T11:20:41;24.40;52.40
21540;DHT22;10931;52.164;5.518;2023-06-04T11:23:12;24.50;52.40
21540;DHT22;10931;52.164;5.518;2023-06-04T11:25:38;24.50;52.40
21540;DHT22;10931;52.164;5.518;2023-06-04T11:28:04;24.50;52.40
21540;DHT22;10931;52.164;5.518;2023-06-04T11:30:30;24.50;52.30
21540;DHT22;10931;52.164;5.518;2023-06-04T11:33:05;24.50;52.30
21540;DHT22;10931;52.164;5.518;2023-06-04T11:35:42;24.60;52.30
21540;DHT22;10931;52.164;5.518;2023-06-04T11:38:09;24.60;52.30
21540;DHT22;10931;52.164;5.518;2023-06-04T11:40:35;24.60;52.30
21540;DHT22;10931;52.164;5.518;2023-06-04T11:43:04;24.60;52.20
21540;DHT22;10931;52.164;5.518;2023-06-04T11:45:30;24.60;52.20
21540;DHT22;10931;52.164;5.518;2023-06-04T11:47:59;24.70;52.20
21540;DHT22;10931;52.164;5.518;2023-06-04T11:50:28;24.70;52.20
21540;DHT22;10931;52.164;5.518;2023-06-04T11:52:54;24.70;52.20
21540;DHT22;10931;52.164;5.518;2023-06-04T11:55:20;24.80;52.20
21540;DHT22;10931;52.164;5.518;2023-06-04T11:57:47;24.80;52.20
21540;DHT22;10931;52.164;5.518;2023-06-04T12:00:14;24.80;52.20
21540;DHT22;10931;52.164;5.518;2023-06-04T12:02:54;24.80;52.10
21540;DHT22;10931;52.164;5.518;2023-06-04T12:05:28;24.80;52.10
21540;DHT22;10931;52.164;5.518;2023-06-04T12:08:06;24.90;52.10
21540;DHT22;10931;52.164;5.518;2023-06-04T12:10:43;24.90;52.10
21540;DHT22;10931;52.164;5.518;2023-06-04T12:13:10;24.90;52.00
21540;DHT22;10931;52.164;5.518;2023-06-04T12:15:36;25.00;52.00
21540;DHT22;10931;52.164;5.518;2023-06-04T12:18:02;25.00;51.90
21540;DHT22;10931;52.164;5.518;2023-06-04T12:20:35;25.00;51.90
21540;DHT22;10931;52.164;5.518;2023-06-04T12:23:02;25.10;51.90
21540;DHT22;10931;52.164;5.518;2023-06-04T12:25:29;25.10;51.80
21540;DHT22;10931;52.164;5.518;2023-06-04T12:27:55;25.10;51.80
21540;DHT22;10931;52.164;5.518;2023-06-04T12:30:22;25.10;51.80
21540;DHT22;10931;52.164;5.518;2023-06-04T12:32:50;25.10;51.80
21540;DHT22;10931;52.164;5.518;2023-06-04T12:35:16;25.20;51.80
21540;DHT22;10931;52.164;5.518;2023-06-04T12:37:42;25.20;51.80
21540;DHT22;10931;52.164;5.518;2023-06-04T12:40:16;25.30;51.80
21540;DHT22;10931;52.164;5.518;2023-06-04T12:42:42;25.20;51.70
21540;DHT22;10931;52.164;5.518;2023-06-04T12:45:11;25.30;51.80
21540;DHT22;10931;52.164;5.518;2023-06-04T12:47:37;25.30;51.80
21540;DHT22;10931;52.164;5.518;2023-06-04T12:50:03;25.30;51.70
21540;DHT22;10931;52.164;5.518;2023-06-04T12:52:29;25.40;51.70
21540;DHT22;10931;52.164;5.518;2023-06-04T12:54:55;25.40;51.70
21540;DHT22;10931;52.164;5.518;2023-06-04T12:57:21;25.40;51.70
21540;DHT22;10931;52.164;5.518;2023-06-04T12:59:46;25.40;51.60
21540;DHT22;10931;52.164;5.518;2023-06-04T13:02:12;25.50;51.70
21540;DHT22;10931;52.164;5.518;2023-06-04T13:04:40;25.50;51.70
21540;DHT22;10931;52.164;5.518;2023-06-04T13:07:08;25.50;51.70
21540;DHT22;10931;52.164;5.518;2023-06-04T13:09:34;25.60;51.70
21540;DHT22;10931;52.164;5.518;2023-06-04T13:12:03;25.60;51.60
21540;DHT22;10931;52.164;5.518;2023-06-04T13:14:30;25.60;51.60
21540;DHT22;10931;52.164;5.518;2023-06-04T13:16:58;25.60;51.60
21540;DHT22;10931;52.164;5.518;2023-06-04T13:19:27;25.60;51.60
21540;DHT22;10931;52.164;5.518;2023-06-04T13:21:55;25.60;51.60
21540;DHT22;10931;52.164;5.518;2023-06-04T13:24:22;25.60;51.60
21540;DHT22;10931;52.164;5.518;2023-06-04T13:26:48;25.70;51.60
21540;DHT22;10931;52.164;5.518;2023-06-04T13:29:13;25.70;51.60
21540;DHT22;10931;52.164;5.518;2023-06-04T13:31:41;25.70;51.60
21540;DHT22;10931;52.164;5.518;2023-06-04T13:34:07;25.80;51.60
21540;DHT22;10931;52.164;5.518;2023-06-04T13:36:32;25.80;51.60
21540;DHT22;10931;52.164;5.518;2023-06-04T13:38:58;25.80;51.60
21540;DHT22;10931;52.164;5.518;2023-06-04T13:41:24;25.80;51.50
21540;DHT22;10931;52.164;5.518;2023-06-04T13:43:50;25.90;51.60
21540;DHT22;10931;52.164;5.518;2023-06-04T13:46:16;25.90;51.60
21540;DHT22;10931;52.164;5.518;2023-06-04T13:48:44;25.90;51.60
21540;DHT22;10931;52.164;5.518;2023-06-04T13:51:10;25.90;51.60
21540;DHT22;10931;52.164;5.518;2023-06-04T13:53:36;26.00;51.60
21540;DHT22;10931;52.164;5.518;2023-06-04T13:56:04;26.00;51.60
21540;DHT22;10931;52.164;5.518;2023-06-04T13:58:30;26.00;51.60
21540;DHT22;10931;52.164;5.518;2023-06-04T14:00:56;26.00;51.60
21540;DHT22;10931;52.164;5.518;2023-06-04T14:03:21;26.10;51.60
21540;DHT22;10931;52.164;5.518;2023-06-04T14:05:48;26.00;51.50
21540;DHT22;10931;52.164;5.518;2023-06-04T14:08:14;26.10;51.60
21540;DHT22;10931;52.164;5.518;2023-06-04T14:10:40;26.10;51.50
21540;DHT22;10931;52.164;5.518;2023-06-04T14:13:07;26.10;51.50
21540;DHT22;10931;52.164;5.518;2023-06-04T14:15:33;26.10;51.40
21540;DHT22;10931;52.164;5.518;2023-06-04T14:17:59;26.20;51.40
21540;DHT22;10931;52.164;5.518;2023-06-04T14:20:25;26.20;51.40
21540;DHT22;10931;52.164;5.518;2023-06-04T14:22:51;26.20;51.40
21540;DHT22;10931;52.164;5.518;2023-06-04T14:25:16;26.20;51.40
21540;DHT22;10931;52.164;5.518;2023-06-04T14:27:42;26.30;51.40
21540;DHT22;10931;52.164;5.518;2023-06-04T14:30:09;26.30;51.40
21540;DHT22;10931;52.164;5.518;2023-06-04T14:32:36;26.30;51.40
21540;DHT22;10931;52.164;5.518;2023-06-04T14:35:05;26.40;51.40
21540;DHT22;10931;52.164;5.518;2023-06-04T14:37:40;26.40;51.40
21540;DHT22;10931;52.164;5.518;2023-06-04T14:40:08;26.40;51.40
21540;DHT22;10931;52.164;5.518;2023-06-04T14:42:34;26.40;51.40
21540;DHT22;10931;52.164;5.518;2023-06-04T14:45:00;26.40;51.40
21540;DHT22;10931;52.164;5.518;2023-06-04T14:47:25;26.50;51.40
21540;DHT22;10931;52.164;5.518;2023-06-04T14:49:51;26.50;51.40
21540;DHT22;10931;52.164;5.518;2023-06-04T14:52:16;26.50;51.40
21540;DHT22;10931;52.164;5.518;2023-06-04T14:54:42;26.50;51.40
21540;DHT22;10931;52.164;5.518;2023-06-04T14:57:08;26.50;51.30
21540;DHT22;10931;52.164;5.518;2023-06-04T14:59:35;26.60;51.40
21540;DHT22;10931;52.164;5.518;2023-06-04T15:02:01;26.60;51.40
21540;DHT22;10931;52.164;5.518;2023-06-04T15:04:30;26.60;51.30
21540;DHT22;10931;52.164;5.518;2023-06-04T15:06:56;26.60;51.30
21540;DHT22;10931;52.164;5.518;2023-06-04T15:09:24;26.60;51.30
21540;DHT22;10931;52.164;5.518;2023-06-04T15:11:50;26.70;51.30
21540;DHT22;10931;52.164;5.518;2023-06-04T15:14:16;26.70;51.30
21540;DHT22;10931;52.164;5.518;2023-06-04T15:16:41;26.70;51.30
21540;DHT22;10931;52.164;5.518;2023-06-04T15:19:09;26.70;51.30
21540;DHT22;10931;52.164;5.518;2023-06-04T15:21:35;26.70;52.00
21540;DHT22;10931;52.164;5.518;2023-06-04T15:24:00;26.80;51.30
21540;DHT22;10931;52.164;5.518;2023-06-04T15:26:26;26.80;51.30
21540;DHT22;10931;52.164;5.518;2023-06-04T15:29:01;26.80;51.30
21540;DHT22;10931;52.164;5.518;2023-06-04T15:31:27;26.80;51.30
21540;DHT22;10931;52.164;5.518;2023-06-04T15:33:53;26.90;51.40
21540;DHT22;10931;52.164;5.518;2023-06-04T15:36:18;26.90;51.40
21540;DHT22;10931;52.164;5.518;2023-06-04T15:38:44;26.90;51.40
21540;DHT22;10931;52.164;5.518;2023-06-04T15:41:10;26.90;51.40
21540;DHT22;10931;52.164;5.518;2023-06-04T15:43:35;26.90;51.30
21540;DHT22;10931;52.164;5.518;2023-06-04T15:46:01;27.00;51.30
21540;DHT22;10931;52.164;5.518;2023-06-04T15:48:27;27.00;51.30